sensor_id;sensor_type;location;lat;lon;timestamp;temperature;humidity
16402;DHT22;8310;44.626;11.176;2023-03-21T00:01:09;10.60;62.40
16402;DHT22;8310;44.626;11.176;2023-03-21T00:03:38;10.60;64.00
16402;DHT22;8310;44.626;11.176;2023-03-21T00:06:09;10.50;62.00
16402;DHT22;8310;44.626;11.176;2023-03-21T00:08:39;10.50;60.70
16402;DHT22;8310;44.626;11.176;2023-03-21T00:11:08;10.50;60.30
16402;DHT22;8310;44.626;11.176;2023-03-21T00:13:38;10.50;61.90
16402;DHT22;8310;44.626;11.176;2023-03-21T00:16:09;10.50;63.50
16402;DHT22;8310;44.626;11.176;2023-03-21T00:18:40;10.40;63.60
16402;DHT22;8310;44.626;11.176;2023-03-21T00:21:11;10.40;63.30
16402;DHT22;8310;44.626;11.176;2023-03-21T00:23:40;10.30;64.80
16402;DHT22;8310;44.626;11.176;2023-03-21T00:26:08;10.30;65.30
16402;DHT22;8310;44.626;11.176;2023-03-21T00:28:37;10.20;65.60
16402;DHT22;8310;44.626;11.176;2023-03-21T00:31:07;10.20;63.50
16402;DHT22;8310;44.626;11.176;2023-03-21T00:33:35;10.20;62.80
16402;DHT22;8310;44.626;11.176;2023-03-21T00:36:04;10.20;62.30
16402;DHT22;8310;44.626;11.176;2023-03-21T00:38:32;10.10;61.90
16402;DHT22;8310;44.626;11.176;2023-03-21T00:41:02;10.10;60.90
16402;DHT22;8310;44.626;11.176;2023-03-21T00:43:30;10.10;60.60
16402;DHT22;8310;44.626;11.176;2023-03-21T00:45:58;10.10;60.30
16402;DHT22;8310;44.626;11.176;2023-03-21T00:48:28;10.10;60.20
16402;DHT22;8310;44.626;11.176;2023-03-21T00:50:56;10.00;60.10
16402;DHT22;8310;44.626;11.176;2023-03-21T00:53:25;10.00;60.00
16402;DHT22;8310;44.626;11.176;2023-03-21T00:55:53;10.00;60.00
16402;DHT22;8310;44.626;11.176;2023-03-21T00:58:21;10.00;59.90
16402;DHT22;8310;44.626;11.176;2023-03-21T01:00:49;10.10;60.30
16402;DHT22;8310;44.626;11.176;2023-03-21T01:03:16;10.10;60.10
16402;DHT22;8310;44.626;11.176;2023-03-21T01:05:47;10.10;60.00
16402;DHT22;8310;44.626;11.176;2023-03-21T01:08:31;10.10;60.30
16402;DHT22;8310;44.626;11.176;2023-03-21T01:11:02;10.00;60.30
16402;DHT22;8310;44.626;11.176;2023-03-21T01:13:30;10.00;60.00
16402;DHT22;8310;44.626;11.176;2023-03-21T01:15:58;10.00;59.80
16402;DHT22;8310;44.626;11.176;2023-03-21T01:18:27;10.00;59.80
16402;DHT22;8310;44.626;11.176;2023-03-21T01:20:59;10.10;59.90
16402;DHT22;8310;44.626;11.176;2023-03-21T01:23:28;10.10;59.90
16402;DHT22;8310;44.626;11.176;2023-03-21T01:25:56;10.10;59.80
16402;DHT22;8310;44.626;11.176;2023-03-21T01:28:26;10.10;59.70
16402;DHT22;8310;44.626;11.176;2023-03-21T01:30:55;10.10;59.70
16402;DHT22;8310;44.626;11.176;2023-03-21T01:33:23;10.10;59.60
16402;DHT22;8310;44.626;11.176;2023-03-21T01:35:51;10.10;59.60
16402;DHT22;8310;44.626;11.176;2023-03-21T01:38:20;10.10;59.70
16402;DHT22;8310;44.626;11.176;2023-03-21T01:40:48;10.10;59.80
16402;DHT22;8310;44.626;11.176;2023-03-21T01:43:21;10.10;59.80
16402;DHT22;8310;44.626;11.176;2023-03-21T01:49:08;10.10;59.90
16402;DHT22;8310;44.626;11.176;2023-03-21T01:51:39;10.10;59.80
16402;DHT22;8310;44.626;11.176;2023-03-21T01:54:14;10.10;59.70
16402;DHT22;8310;44.626;11.176;2023-03-21T01:56:44;10.10;60.00
16402;DHT22;8310;44.626;11.176;2023-03-21T01:59:17;10.00;61.60
16402;DHT22;8310;44.626;11.176;2023-03-21T02:01:48;10.00;62.00
16402;DHT22;8310;44.626;11.176;2023-03-21T02:04:16;9.90;62.30
16402;DHT22;8310;44.626;11.176;2023-03-21T02:06:51;9.80;63.50
16402;DHT22;8310;44.626;11.176;2023-03-21T02:09:24;9.80;63.00
16402;DHT22;8310;44.626;11.176;2023-03-21T02:11:54;9.80;63.70
16402;DHT22;8310;44.626;11.176;2023-03-21T02:14:21;9.70;65.40
16402;DHT22;8310;44.626;11.176;2023-03-21T02:16:57;9.70;66.60
16402;DHT22;8310;44.626;11.176;2023-03-21T02:22:45;9.60;65.20
16402;DHT22;8310;44.626;11.176;2023-03-21T02:28:34;9.50;64.90
16402;DHT22;8310;44.626;11.176;2023-03-21T02:31:17;9.50;64.00
16402;DHT22;8310;44.626;11.176;2023-03-21T02:34:13;9.50;65.60
16402;DHT22;8310;44.626;11.176;2023-03-21T02:36:54;9.50;66.60
16402;DHT22;8310;44.626;11.176;2023-03-21T02:39:25;9.40;66.60
16402;DHT22;8310;44.626;11.176;2023-03-21T02:42:02;9.40;68.80
16402;DHT22;8310;44.626;11.176;2023-03-21T02:44:37;9.40;68.60
16402;DHT22;8310;44.626;11.176;2023-03-21T02:47:09;9.30;68.70
16402;DHT22;8310;44.626;11.176;2023-03-21T02:49:42;9.30;68.30
16402;DHT22;8310;44.626;11.176;2023-03-21T02:52:14;9.30;66.90
16402;DHT22;8310;44.626;11.176;2023-03-21T02:54:44;9.20;66.90
16402;DHT22;8310;44.626;11.176;2023-03-21T02:57:13;9.20;65.20
16402;DHT22;8310;44.626;11.176;2023-03-21T02:59:44;9.20;65.20
16402;DHT22;8310;44.626;11.176;2023-03-21T03:02:14;9.20;65.70
16402;DHT22;8310;44.626;11.176;2023-03-21T03:04:43;9.20;65.50
16402;DHT22;8310;44.626;11.176;2023-03-21T03:07:24;9.20;64.60
16402;DHT22;8310;44.626;11.176;2023-03-21T03:10:13;9.20;63.70
16402;DHT22;8310;44.626;11.176;2023-03-21T03:12:56;9.10;64.30
16402;DHT22;8310;44.626;11.176;2023-03-21T03:15:32;9.10;64.10
16402;DHT22;8310;44.626;11.176;2023-03-21T03:18:10;9.10;63.40
16402;DHT22;8310;44.626;11.176;2023-03-21T03:20:47;9.10;64.80
16402;DHT22;8310;44.626;11.176;2023-03-21T03:23:24;9.20;63.40
16402;DHT22;8310;44.626;11.176;2023-03-21T03:25:57;9.20;62.70
16402;DHT22;8310;44.626;11.176;2023-03-21T03:28:30;9.20;62.70
16402;DHT22;8310;44.626;11.176;2023-03-21T03:31:00;9.20;63.00
16402;DHT22;8310;44.626;11.176;2023-03-21T03:33:28;9.20;62.60
16402;DHT22;8310;44.626;11.176;2023-03-21T03:35:58;9.20;63.50
16402;DHT22;8310;44.626;11.176;2023-03-21T03:38:28;9.10;63.40
16402;DHT22;8310;44.626;11.176;2023-03-21T03:41:01;9.10;65.90
16402;DHT22;8310;44.626;11.176;2023-03-21T03:43:33;9.10;66.10
16402;DHT22;8310;44.626;11.176;2023-03-21T03:46:07;9.10;68.00
16402;DHT22;8310;44.626;11.176;2023-03-21T03:48:41;9.10;66.30
16402;DHT22;8310;44.626;11.176;2023-03-21T03:51:16;9.10;66.00
16402;DHT22;8310;44.626;11.176;2023-03-21T03:53:50;9.10;67.70
16402;DHT22;8310;44.626;11.176;2023-03-21T03:56:20;9.10;66.50
16402;DHT22;8310;44.626;11.176;2023-03-21T03:58:48;9.10;69.40
16402;DHT22;8310;44.626;11.176;2023-03-21T04:01:16;9.00;68.10
16402;DHT22;8310;44.626;11.176;2023-03-21T04:03:46;9.00;69.30
16402;DHT22;8310;44.626;11.176;2023-03-21T04:06:15;9.00;69.00
16402;DHT22;8310;44.626;11.176;2023-03-21T04:08:43;8.90;66.50
16402;DHT22;8310;44.626;11.176;2023-03-21T04:11:14;8.90;64.40
16402;DHT22;8310;44.626;11.176;2023-03-21T04:13:41;8.90;65.60
16402;DHT22;8310;44.626;11.176;2023-03-21T04:16:10;8.90;67.00
16402;DHT22;8310;44.626;11.176;2023-03-21T04:18:37;8.90;67.50
16402;DHT22;8310;44.626;11.176;2023-03-21T04:21:08;8.90;65.50
16402;DHT22;8310;44.626;11.176;2023-03-21T04:23:37;8.90;65.50
16402;DHT22;8310;44.626;11.176;2023-03-21T04:26:05;8.90;65.20
16402;DHT22;8310;44.626;11.176;2023-03-21T04:28:35;8.90;63.80
16402;DHT22;8310;44.626;11.176;2023-03-21T04:31:05;9.00;63.20
16402;DHT22;8310;44.626;11.176;2023-03-21T04:33:34;9.00;63.00
16402;DHT22;8310;44.626;11.176;2023-03-21T04:36:04;9.00;62.80
16402;DHT22;8310;44.626;11.176;2023-03-21T04:38:32;9.10;62.70
16402;DHT22;8310;44.626;11.176;2023-03-21T04:41:00;9.10;62.50
16402;DHT22;8310;44.626;11.176;2023-03-21T04:43:28;9.10;62.40
16402;DHT22;8310;44.626;11.176;2023-03-21T04:45:57;9.10;62.30
16402;DHT22;8310;44.626;11.176;2023-03-21T04:48:25;9.20;62.30
16402;DHT22;8310;44.626;11.176;2023-03-21T04:50:53;9.20;62.20
16402;DHT22;8310;44.626;11.176;2023-03-21T04:53:20;9.20;62.10
16402;DHT22;8310;44.626;11.176;2023-03-21T04:55:48;9.20;62.00
16402;DHT22;8310;44.626;11.176;2023-03-21T04:58:16;9.20;62.00
16402;DHT22;8310;44.626;11.176;2023-03-21T05:00:44;9.20;61.90
16402;DHT22;8310;44.626;11.176;2023-03-21T05:03:13;9.20;61.90
16402;DHT22;8310;44.626;11.176;2023-03-21T05:05:44;9.20;61.70
16402;DHT22;8310;44.626;11.176;2023-03-21T05:08:12;9.20;61.70
16402;DHT22;8310;44.626;11.176;2023-03-21T05:10:40;9.20;61.50
16402;DHT22;8310;44.626;11.176;2023-03-21T05:13:08;9.20;61.50
16402;DHT22;8310;44.626;11.176;2023-03-21T05:15:36;9.20;61.50
16402;DHT22;8310;44.626;11.176;2023-03-21T05:18:03;9.20;61.50
16402;DHT22;8310;44.626;11.176;2023-03-21T05:20:38;9.10;61.60
16402;DHT22;8310;44.626;11.176;2023-03-21T05:23:07;9.10;62.40
16402;DHT22;8310;44.626;11.176;2023-03-21T05:25:35;9.10;65.90
16402;DHT22;8310;44.626;11.176;2023-03-21T05:28:04;9.00;65.90
16402;DHT22;8310;44.626;11.176;2023-03-21T05:30:32;9.00;66.20
16402;DHT22;8310;44.626;11.176;2023-03-21T05:33:00;8.90;65.60
16402;DHT22;8310;44.626;11.176;2023-03-21T05:35:27;8.90;66.40
16402;DHT22;8310;44.626;11.176;2023-03-21T05:37:57;8.80;65.50
16402;DHT22;8310;44.626;11.176;2023-03-21T05:40:24;8.80;64.40
16402;DHT22;8310;44.626;11.176;2023-03-21T05:42:52;8.80;63.90
16402;DHT22;8310;44.626;11.176;2023-03-21T05:45:20;8.80;63.60
16402;DHT22;8310;44.626;11.176;2023-03-21T05:47:48;8.90;63.80
16402;DHT22;8310;44.626;11.176;2023-03-21T05:50:16;9.10;64.10
16402;DHT22;8310;44.626;11.176;2023-03-21T05:52:45;9.20;64.30
16402;DHT22;8310;44.626;11.176;2023-03-21T05:55:14;9.40;64.70
16402;DHT22;8310;44.626;11.176;2023-03-21T05:57:43;9.60;64.90
16402;DHT22;8310;44.626;11.176;2023-03-21T06:00:11;9.80;65.20
16402;DHT22;8310;44.626;11.176;2023-03-21T06:02:39;10.00;65.90
16402;DHT22;8310;44.626;11.176;2023-03-21T06:05:08;10.20;66.50
16402;DHT22;8310;44.626;11.176;2023-03-21T06:07:36;10.40;67.40
16402;DHT22;8310;44.626;11.176;2023-03-21T06:10:05;10.60;68.30
16402;DHT22;8310;44.626;11.176;2023-03-21T06:12:34;10.80;68.00
16402;DHT22;8310;44.626;11.176;2023-03-21T06:15:01;11.00;68.90
16402;DHT22;8310;44.626;11.176;2023-03-21T06:17:30;11.20;68.90
16402;DHT22;8310;44.626;11.176;2023-03-21T06:19:57;11.30;69.20
16402;DHT22;8310;44.626;11.176;2023-03-21T06:22:26;11.60;69.80
16402;DHT22;8310;44.626;11.176;2023-03-21T06:24:54;11.80;70.60
16402;DHT22;8310;44.626;11.176;2023-03-21T06:27:21;12.10;70.60
16402;DHT22;8310;44.626;11.176;2023-03-21T06:29:51;12.40;70.90
16402;DHT22;8310;44.626;11.176;2023-03-21T06:32:18;12.60;71.00
16402;DHT22;8310;44.626;11.176;2023-03-21T06:34:46;12.90;71.30
16402;DHT22;8310;44.626;11.176;2023-03-21T06:37:14;13.20;71.60
16402;DHT22;8310;44.626;11.176;2023-03-21T06:39:43;13.40;71.50
16402;DHT22;8310;44.626;11.176;2023-03-21T06:42:11;13.70;71.90
16402;DHT22;8310;44.626;11.176;2023-03-21T06:44:39;13.90;72.30
16402;DHT22;8310;44.626;11.176;2023-03-21T06:47:08;14.20;72.30
16402;DHT22;8310;44.626;11.176;2023-03-21T06:49:35;14.50;72.50
16402;DHT22;8310;44.626;11.176;2023-03-21T06:52:03;14.70;72.80
16402;DHT22;8310;44.626;11.176;2023-03-21T06:54:32;14.90;72.20
16402;DHT22;8310;44.626;11.176;2023-03-21T06:56:59;15.20;71.90
16402;DHT22;8310;44.626;11.176;2023-03-21T06:59:27;15.40;71.70
16402;DHT22;8310;44.626;11.176;2023-03-21T07:01:54;15.60;71.60
16402;DHT22;8310;44.626;11.176;2023-03-21T07:04:23;15.70;70.40
16402;DHT22;8310;44.626;11.176;2023-03-21T07:06:51;15.80;69.20
16402;DHT22;8310;44.626;11.176;2023-03-21T07:09:19;15.70;68.60
16402;DHT22;8310;44.626;11.176;2023-03-21T07:11:49;15.60;67.40
16402;DHT22;8310;44.626;11.176;2023-03-21T07:14:18;15.50;66.30
16402;DHT22;8310;44.626;11.176;2023-03-21T07:16:46;15.20;65.50
16402;DHT22;8310;44.626;11.176;2023-03-21T07:19:13;14.90;65.10
16402;DHT22;8310;44.626;11.176;2023-03-21T07:21:46;14.70;65.30
16402;DHT22;8310;44.626;11.176;2023-03-21T07:24:14;14.40;65.70
16402;DHT22;8310;44.626;11.176;2023-03-21T07:26:41;14.30;66.90
16402;DHT22;8310;44.626;11.176;2023-03-21T07:29:09;14.20;66.70
16402;DHT22;8310;44.626;11.176;2023-03-21T07:31:37;14.10;66.50
16402;DHT22;8310;44.626;11.176;2023-03-21T07:34:04;14.10;66.70
16402;DHT22;8310;44.626;11.176;2023-03-21T07:36:32;14.10;65.80
16402;DHT22;8310;44.626;11.176;2023-03-21T07:39:01;14.10;65.60
16402;DHT22;8310;44.626;11.176;2023-03-21T07:41:29;14.20;66.20
16402;DHT22;8310;44.626;11.176;2023-03-21T07:43:57;14.20;65.80
16402;DHT22;8310;44.626;11.176;2023-03-21T07:46:25;14.30;66.10
16402;DHT22;8310;44.626;11.176;2023-03-21T07:48:53;14.40;66.10
16402;DHT22;8310;44.626;11.176;2023-03-21T07:51:21;14.50;66.50
16402;DHT22;8310;44.626;11.176;2023-03-21T07:53:48;14.60;66.10
16402;DHT22;8310;44.626;11.176;2023-03-21T07:56:17;14.70;66.70
16402;DHT22;8310;44.626;11.176;2023-03-21T07:58:45;14.80;67.10
16402;DHT22;8310;44.626;11.176;2023-03-21T08:01:13;14.90;66.60
16402;DHT22;8310;44.626;11.176;2023-03-21T08:03:41;15.00;66.70
16402;DHT22;8310;44.626;11.176;2023-03-21T08:06:09;15.10;66.70
16402;DHT22;8310;44.626;11.176;2023-03-21T08:08:37;15.20;66.70
16402;DHT22;8310;44.626;11.176;2023-03-21T08:11:06;15.30;66.50
16402;DHT22;8310;44.626;11.176;2023-03-21T08:13:36;15.50;66.70
16402;DHT22;8310;44.626;11.176;2023-03-21T08:16:06;15.60;66.90
16402;DHT22;8310;44.626;11.176;2023-03-21T08:18:34;15.70;67.00
16402;DHT22;8310;44.626;11.176;2023-03-21T08:21:02;15.80;67.40
16402;DHT22;8310;44.626;11.176;2023-03-21T08:23:32;15.90;66.90
16402;DHT22;8310;44.626;11.176;2023-03-21T08:26:01;16.10;67.10
16402;DHT22;8310;44.626;11.176;2023-03-21T08:28:29;16.20;66.70
16402;DHT22;8310;44.626;11.176;2023-03-21T08:30:58;16.30;66.80
16402;DHT22;8310;44.626;11.176;2023-03-21T08:33:26;16.40;66.60
16402;DHT22;8310;44.626;11.176;2023-03-21T08:35:58;16.60;66.70
16402;DHT22;8310;44.626;11.176;2023-03-21T08:38:26;16.70;66.90
16402;DHT22;8310;44.626;11.176;2023-03-21T08:40:54;16.80;66.60
16402;DHT22;8310;44.626;11.176;2023-03-21T08:43:22;17.00;67.00
16402;DHT22;8310;44.626;11.176;2023-03-21T08:45:50;17.10;66.70
16402;DHT22;8310;44.626;11.176;2023-03-21T08:48:19;17.10;66.50
16402;DHT22;8310;44.626;11.176;2023-03-21T08:50:47;17.20;66.70
16402;DHT22;8310;44.626;11.176;2023-03-21T08:53:14;17.30;66.80
16402;DHT22;8310;44.626;11.176;2023-03-21T08:55:43;17.40;66.60
16402;DHT22;8310;44.626;11.176;2023-03-21T08:58:11;17.50;66.60
16402;DHT22;8310;44.626;11.176;2023-03-21T09:00:39;17.70;66.50
16402;DHT22;8310;44.626;11.176;2023-03-21T09:03:08;17.80;66.50
16402;DHT22;8310;44.626;11.176;2023-03-21T09:05:37;17.90;66.40
16402;DHT22;8310;44.626;11.176;2023-03-21T09:08:05;18.00;66.40
16402;DHT22;8310;44.626;11.176;2023-03-21T09:10:33;18.10;66.50
16402;DHT22;8310;44.626;11.176;2023-03-21T09:13:00;18.20;66.50
16402;DHT22;8310;44.626;11.176;2023-03-21T09:15:28;18.30;66.30
16402;DHT22;8310;44.626;11.176;2023-03-21T09:17:56;18.40;66.20
16402;DHT22;8310;44.626;11.176;2023-03-21T09:20:40;18.50;66.30
16402;DHT22;8310;44.626;11.176;2023-03-21T09:23:08;18.70;66.00
16402;DHT22;8310;44.626;11.176;2023-03-21T09:25:36;18.80;66.10
16402;DHT22;8310;44.626;11.176;2023-03-21T09:28:04;18.90;66.10
16402;DHT22;8310;44.626;11.176;2023-03-21T09:30:33;19.00;65.60
16402;DHT22;8310;44.626;11.176;2023-03-21T09:33:02;19.10;65.20
16402;DHT22;8310;44.626;11.176;2023-03-21T09:35:31;19.20;65.50
16402;DHT22;8310;44.626;11.176;2023-03-21T09:38:01;19.30;65.30
16402;DHT22;8310;44.626;11.176;2023-03-21T09:40:41;19.40;64.40
16402;DHT22;8310;44.626;11.176;2023-03-21T09:43:21;19.40;65.40
16402;DHT22;8310;44.626;11.176;2023-03-21T09:45:59;19.50;65.40
16402;DHT22;8310;44.626;11.176;2023-03-21T09:48:33;19.60;64.30
16402;DHT22;8310;44.626;11.176;2023-03-21T09:51:03;19.60;64.50
16402;DHT22;8310;44.626;11.176;2023-03-21T09:53:36;19.70;65.30
16402;DHT22;8310;44.626;11.176;2023-03-21T09:56:06;19.80;65.50
16402;DHT22;8310;44.626;11.176;2023-03-21T09:58:40;19.90;65.60
16402;DHT22;8310;44.626;11.176;2023-03-21T10:01:12;20.00;65.70
16402;DHT22;8310;44.626;11.176;2023-03-21T10:03:52;20.10;65.20
16402;DHT22;8310;44.626;11.176;2023-03-21T10:06:21;20.20;64.30
16402;DHT22;8310;44.626;11.176;2023-03-21T10:08:56;20.30;64.70
16402;DHT22;8310;44.626;11.176;2023-03-21T10:11:27;20.40;65.30
16402;DHT22;8310;44.626;11.176;2023-03-21T10:13:58;20.50;65.40
16402;DHT22;8310;44.626;11.176;2023-03-21T10:16:30;20.60;65.40
16402;DHT22;8310;44.626;11.176;2023-03-21T10:18:59;20.70;65.40
16402;DHT22;8310;44.626;11.176;2023-03-21T10:21:29;20.70;65.40
16402;DHT22;8310;44.626;11.176;2023-03-21T10:24:00;20.90;65.50
16402;DHT22;8310;44.626;11.176;2023-03-21T10:26:28;21.00;65.00
16402;DHT22;8310;44.626;11.176;2023-03-21T10:28:58;21.00;65.20
16402;DHT22;8310;44.626;11.176;2023-03-21T10:31:29;21.10;64.70
16402;DHT22;8310;44.626;11.176;2023-03-21T10:34:01;21.20;64.90
16402;DHT22;8310;44.626;11.176;2023-03-21T10:36:31;21.20;65.00
16402;DHT22;8310;44.626;11.176;2023-03-21T10:39:05;21.30;65.30
16402;DHT22;8310;44.626;11.176;2023-03-21T10:41:34;21.40;65.20
16402;DHT22;8310;44.626;11.176;2023-03-21T10:44:07;21.50;65.20
16402;DHT22;8310;44.626;11.176;2023-03-21T10:46:36;21.60;65.30
16402;DHT22;8310;44.626;11.176;2023-03-21T10:49:06;21.70;65.30
16402;DHT22;8310;44.626;11.176;2023-03-21T10:51:36;21.80;65.50
16402;DHT22;8310;44.626;11.176;2023-03-21T10:54:07;21.90;65.60
16402;DHT22;8310;44.626;11.176;2023-03-21T10:56:44;22.10;65.70
16402;DHT22;8310;44.626;11.176;2023-03-21T10:59:17;22.30;65.60
16402;DHT22;8310;44.626;11.176;2023-03-21T11:01:49;22.40;65.20
16402;DHT22;8310;44.626;11.176;2023-03-21T11:04:21;22.50;65.10
16402;DHT22;8310;44.626;11.176;2023-03-21T11:06:51;22.50;65.00
16402;DHT22;8310;44.626;11.176;2023-03-21T11:09:24;22.60;65.20
16402;DHT22;8310;44.626;11.176;2023-03-21T11:11:54;22.70;65.20
16402;DHT22;8310;44.626;11.176;2023-03-21T11:14:34;22.80;64.30
16402;DHT22;8310;44.626;11.176;2023-03-21T11:17:18;22.80;64.40
16402;DHT22;8310;44.626;11.176;2023-03-21T11:19:47;22.80;64.70
16402;DHT22;8310;44.626;11.176;2023-03-21T11:22:16;22.80;61.00
16402;DHT22;8310;44.626;11.176;2023-03-21T11:24:49;22.80;63.70
16402;DHT22;8310;44.626;11.176;2023-03-21T11:27:17;22.70;60.00
16402;DHT22;8310;44.626;11.176;2023-03-21T11:29:47;22.70;63.00
16402;DHT22;8310;44.626;11.176;2023-03-21T11:32:21;22.70;63.40
16402;DHT22;8310;44.626;11.176;2023-03-21T11:34:50;22.70;63.40
16402;DHT22;8310;44.626;11.176;2023-03-21T11:37:24;22.70;63.90
16402;DHT22;8310;44.626;11.176;2023-03-21T11:40:06;22.70;62.40
16402;DHT22;8310;44.626;11.176;2023-03-21T11:42:41;22.80;62.90
16402;DHT22;8310;44.626;11.176;2023-03-21T11:45:13;22.90;60.80
16402;DHT22;8310;44.626;11.176;2023-03-21T11:47:42;22.90;60.00
16402;DHT22;8310;44.626;11.176;2023-03-21T11:50:16;22.90;62.30
16402;DHT22;8310;44.626;11.176;2023-03-21T11:52:55;22.90;62.00
16402;DHT22;8310;44.626;11.176;2023-03-21T11:55:38;22.90;62.40
16402;DHT22;8310;44.626;11.176;2023-03-21T11:58:20;23.00;62.10
16402;DHT22;8310;44.626;11.176;2023-03-21T12:00:57;23.00;63.10
16402;DHT22;8310;44.626;11.176;2023-03-21T12:06:27;23.20;63.40
16402;DHT22;8310;44.626;11.176;2023-03-21T12:12:14;23.40;63.50
16402;DHT22;8310;44.626;11.176;2023-03-21T12:14:53;23.50;63.60
16402;DHT22;8310;44.626;11.176;2023-03-21T12:17:34;23.60;63.10
16402;DHT22;8310;44.626;11.176;2023-03-21T12:20:25;23.60;63.00
16402;DHT22;8310;44.626;11.176;2023-03-21T12:23:05;23.60;63.30
16402;DHT22;8310;44.626;11.176;2023-03-21T12:25:37;23.80;63.60
16402;DHT22;8310;44.626;11.176;2023-03-21T12:28:16;23.90;63.20
16402;DHT22;8310;44.626;11.176;2023-03-21T12:30:54;24.00;63.30
16402;DHT22;8310;44.626;11.176;2023-03-21T12:33:35;24.00;60.30
16402;DHT22;8310;44.626;11.176;2023-03-21T12:36:19;23.90;61.20
16402;DHT22;8310;44.626;11.176;2023-03-21T12:38:58;23.80;58.90
16402;DHT22;8310;44.626;11.176;2023-03-21T12:41:33;23.70;60.90
16402;DHT22;8310;44.626;11.176;2023-03-21T12:44:10;23.60;61.40
16402;DHT22;8310;44.626;11.176;2023-03-21T12:46:46;23.60;61.10
16402;DHT22;8310;44.626;11.176;2023-03-21T12:49:20;23.60;61.10
16402;DHT22;8310;44.626;11.176;2023-03-21T12:51:53;23.50;61.20
16402;DHT22;8310;44.626;11.176;2023-03-21T12:54:25;23.50;61.90
16402;DHT22;8310;44.626;11.176;2023-03-21T12:56:59;23.60;59.90
16402;DHT22;8310;44.626;11.176;2023-03-21T12:59:35;23.60;60.90
16402;DHT22;8310;44.626;11.176;2023-03-21T13:02:25;23.50;58.70
16402;DHT22;8310;44.626;11.176;2023-03-21T13:04:57;23.50;61.30
16402;DHT22;8310;44.626;11.176;2023-03-21T13:07:29;23.50;61.30
16402;DHT22;8310;44.626;11.176;2023-03-21T13:10:00;23.60;62.00
16402;DHT22;8310;44.626;11.176;2023-03-21T13:12:40;23.70;62.30
16402;DHT22;8310;44.626;11.176;2023-03-21T13:15:27;23.90;62.60
16402;DHT22;8310;44.626;11.176;2023-03-21T13:17:59;24.10;62.30
16402;DHT22;8310;44.626;11.176;2023-03-21T13:20:31;24.20;62.00
16402;DHT22;8310;44.626;11.176;2023-03-21T13:23:01;24.20;61.50
16402;DHT22;8310;44.626;11.176;2023-03-21T13:25:31;24.30;61.70
16402;DHT22;8310;44.626;11.176;2023-03-21T13:28:01;24.30;59.80
16402;DHT22;8310;44.626;11.176;2023-03-21T13:30:31;24.30;58.10
16402;DHT22;8310;44.626;11.176;2023-03-21T13:33:04;24.30;60.30
16402;DHT22;8310;44.626;11.176;2023-03-21T13:35:34;24.20;60.90
16402;DHT22;8310;44.626;11.176;2023-03-21T13:38:04;24.20;60.40
16402;DHT22;8310;44.626;11.176;2023-03-21T13:40:36;24.20;60.90
16402;DHT22;8310;44.626;11.176;2023-03-21T13:43:38;24.30;61.20
16402;DHT22;8310;44.626;11.176;2023-03-21T13:46:10;24.40;61.00
16402;DHT22;8310;44.626;11.176;2023-03-21T13:48:44;24.50;60.80
16402;DHT22;8310;44.626;11.176;2023-03-21T13:51:40;24.40;61.00
16402;DHT22;8310;44.626;11.176;2023-03-21T13:54:17;24.50;60.90
16402;DHT22;8310;44.626;11.176;2023-03-21T13:56:50;24.50;61.10
16402;DHT22;8310;44.626;11.176;2023-03-21T13:59:34;24.60;61.50
16402;DHT22;8310;44.626;11.176;2023-03-21T14:02:26;24.80;61.80
16402;DHT22;8310;44.626;11.176;2023-03-21T14:04:58;25.00;62.00
16402;DHT22;8310;44.626;11.176;2023-03-21T14:07:28;25.10;59.40
16402;DHT22;8310;44.626;11.176;2023-03-21T14:09:59;25.10;59.90
16402;DHT22;8310;44.626;11.176;2023-03-21T14:14:58;24.80;59.60
16402;DHT22;8310;44.626;11.176;2023-03-21T14:17:31;24.70;59.20
16402;DHT22;8310;44.626;11.176;2023-03-21T14:20:01;24.60;59.80
16402;DHT22;8310;44.626;11.176;2023-03-21T14:22:35;24.50;59.00
16402;DHT22;8310;44.626;11.176;2023-03-21T14:25:03;24.40;58.30
16402;DHT22;8310;44.626;11.176;2023-03-21T14:27:32;24.20;56.90
16402;DHT22;8310;44.626;11.176;2023-03-21T14:30:03;24.00;58.50
16402;DHT22;8310;44.626;11.176;2023-03-21T14:32:35;24.00;59.00
16402;DHT22;8310;44.626;11.176;2023-03-21T14:35:08;24.00;59.20
16402;DHT22;8310;44.626;11.176;2023-03-21T14:37:41;24.00;59.00
16402;DHT22;8310;44.626;11.176;2023-03-21T14:40:18;24.00;59.30
16402;DHT22;8310;44.626;11.176;2023-03-21T14:42:47;23.90;59.00
16402;DHT22;8310;44.626;11.176;2023-03-21T14:45:17;23.90;59.50
16402;DHT22;8310;44.626;11.176;2023-03-21T14:47:58;24.00;60.20
16402;DHT22;8310;44.626;11.176;2023-03-21T14:50:31;24.20;60.10
16402;DHT22;8310;44.626;11.176;2023-03-21T14:53:01;24.40;59.20
16402;DHT22;8310;44.626;11.176;2023-03-21T14:55:29;24.40;59.70
16402;DHT22;8310;44.626;11.176;2023-03-21T14:57:57;24.50;59.30
16402;DHT22;8310;44.626;11.176;2023-03-21T15:00:27;24.40;58.70
16402;DHT22;8310;44.626;11.176;2023-03-21T15:02:57;24.20;58.30
16402;DHT22;8310;44.626;11.176;2023-03-21T15:05:28;24.10;58.00
16402;DHT22;8310;44.626;11.176;2023-03-21T15:08:00;23.90;58.60
16402;DHT22;8310;44.626;11.176;2023-03-21T15:10:29;23.90;59.20
16402;DHT22;8310;44.626;11.176;2023-03-21T15:12:59;24.00;59.80
16402;DHT22;8310;44.626;11.176;2023-03-21T15:15:28;24.10;58.90
16402;DHT22;8310;44.626;11.176;2023-03-21T15:18:03;24.10;58.20
16402;DHT22;8310;44.626;11.176;2023-03-21T15:20:33;24.00;58.60
16402;DHT22;8310;44.626;11.176;2023-03-21T15:23:05;23.90;58.50
16402;DHT22;8310;44.626;11.176;2023-03-21T15:25:40;23.80;58.60
16402;DHT22;8310;44.626;11.176;2023-03-21T15:28:11;23.80;59.10
16402;DHT22;8310;44.626;11.176;2023-03-21T15:30:46;23.80;57.30
16402;DHT22;8310;44.626;11.176;2023-03-21T15:33:16;23.80;57.50
16402;DHT22;8310;44.626;11.176;2023-03-21T15:35:49;23.60;57.10
16402;DHT22;8310;44.626;11.176;2023-03-21T15:38:23;23.40;57.70
16402;DHT22;8310;44.626;11.176;2023-03-21T15:41:13;23.30;58.00
16402;DHT22;8310;44.626;11.176;2023-03-21T15:43:41;23.20;57.80
16402;DHT22;8310;44.626;11.176;2023-03-21T15:46:14;23.00;56.70
16402;DHT22;8310;44.626;11.176;2023-03-21T15:48:43;22.90;57.30
16402;DHT22;8310;44.626;11.176;2023-03-21T15:51:16;22.70;57.80
16402;DHT22;8310;44.626;11.176;2023-03-21T15:53:46;22.70;57.50
16402;DHT22;8310;44.626;11.176;2023-03-21T15:56:14;22.60;57.70
16402;DHT22;8310;44.626;11.176;2023-03-21T15:58:43;22.50;58.00
16402;DHT22;8310;44.626;11.176;2023-03-21T16:01:16;22.50;58.10
16402;DHT22;8310;44.626;11.176;2023-03-21T16:03:47;22.50;58.20
16402;DHT22;8310;44.626;11.176;2023-03-21T16:06:20;22.50;58.40
16402;DHT22;8310;44.626;11.176;2023-03-21T16:08:52;22.50;58.60
16402;DHT22;8310;44.626;11.176;2023-03-21T16:11:23;22.60;58.60
16402;DHT22;8310;44.626;11.176;2023-03-21T16:13:51;22.60;58.50
16402;DHT22;8310;44.626;11.176;2023-03-21T16:16:20;22.60;58.40
16402;DHT22;8310;44.626;11.176;2023-03-21T16:18:50;22.60;58.30